Boxted, United Kingdom
Current Conditions -  °F | °C
As of 3:50 AM on Thursday 27 Nov 2014 (Local Time) from EGUW Reporting Station
Moderate Fog Moderate Fog  
Wind Chill: 46°   Ceiling: 100
Heat Index: 48°   Visibility: 0.31mi
Dew Point: 48°   Wind: 6mph
Humidity: 100%   Direction: 110°ESE
Pressure: 29.65"   Gusts: NA
Location:  51.88°N, 0.93°E
Report Text: EGUW 270350Z 11005KT 0500 FG OVC001 09/09 Q1004 RED
Loading
Personal Weather Stations






























Interactive Weather Map New forecast layout! Learn more

10-Day Weather Forecast

Advertisements
Track Severe Weather on mobile